Cleveland, Ohio
Current Conditions -  °F | °C
As of 4:53 AM on Wednesday 26 Nov 2014 (Local Time) from KBKL Reporting Station
Overcast Overcast  
Wind Chill: 29°   Ceiling: 2400
Heat Index: 34°   Visibility: 10mi
Dew Point: 24°   Wind: 6mph
Humidity: 67%   Direction: 90°E
Pressure: 30.16"   Gusts: NA
Location:  41.5°N, 81.69°W
Report Text: KBKL 260953Z 09005KT 10SM OVC024 01/M04 A3016 RMK AO2 SLP221 T00111044
Loading
Personal Weather Stations






























Interactive Weather Map New forecast layout! Learn more

10-Day Weather Forecast

Advertisements
Track Severe Weather on mobile